KLEB

Lebanon Municipal Airport

Lebanon, New Hampshire, USA
METAR KLEB 140453Z AUTO 33009KT 10SM SCT034 BKN045 OVC050 M01/M08 A3003 RMK AO2 SLP178 P0001 T10111083 400331011
Observed Flight Rules
Nov-14 @ 04:53 UTC (42 minutes ago) Visual Flight Rules
Wind Visibility Clouds
330° at 9 knots 10 miles
  • Scattered at 3,400' AGL
  • Broken at 4,500' AGL
  • Overcast at 5,000' AGL
Temperatures Readings Precipitation
Current -1°C / 30°F
Dewpoint -8°C / 18°F
Humidity 59%
Altimeter 30.03" Hg
Pressure 1017.8 hPa
Elevation 171
Current Rain 0.01
METAR KLEB 140453Z AUTO 33009KT 10SM SCT034 BKN045 OVC050 M01/M08 A3003 RMK AO2 SLP178 P0001 T10111083 400331011
Observed Flight Rules
Nov-14 @ 04:53 UTC
(42 minutes ago)
VFR
Wind Visibility
330° at 9 knots 10 miles
Clouds
  • Scattered at 3,400' AGL
  • Broken at 4,500' AGL
  • Overcast at 5,000' AGL
Temperature Dewpoint
-1°C / 30°F -8°C / 18°F
Humidity Altimeter Pressure
59% 30.03" Hg 1017.8 hPa
Current Rain
0.01